Hamburg, Minnesota
Current Conditions -  °F | °C
As of 8:34 AM on Monday 26 Jan 2015 (Local Time) from KGYL Reporting Station
Scattered Clouds Scattered Clouds  
Wind Chill: 28°   Ceiling: Unl
Heat Index: 33°   Visibility: 10mi
Dew Point: 32°   Wind: 6mph
Humidity: 95%   Direction: 250°WSW
Pressure: 29.69"   Gusts: NA
Location:  44.73°N, 93.97°W
Report Text: KGYL 261434Z AUTO 25005KT 10SM SCT021 01/00 A2969 RMK AO2 T00061001
Loading
Personal Weather Stations






























Interactive Weather Map New forecast layout! Learn more

10-Day Weather Forecast

Advertisements
Track Severe Weather on mobile